Time;durP1;ratioP1;P1;durP2;ratioP2;P2;SDS_P1;SDS_P2;PMS_P1;PMS_P2;Temp;Humidity;BMP_temperature;BMP_pressure;BME280_temperature;BME280_humidity;BME280_pressure;Samples;Min_cycle;Max_cycle;Signal;HPM_P1;HPM_P2
2021/10/15 00:00:59;;;;;;;;;;;;;;;9.40;100.00;101456.44;5032679;28;20362;-88
2021/10/15 00:03:25;;;;;;;;;;;;;;;9.45;100.00;101456.00;5028888;28;20281;-91
2021/10/15 00:05:50;;;;;;;;;;;;;;;9.50;100.00;101451.03;5045536;28;19920;-91
2021/10/15 00:08:16;;;;;;;;;;;;;;;9.53;100.00;101461.47;5034386;28;19923;-88
2021/10/15 00:10:41;;;;;;;;;;;;;;;9.54;100.00;101457.78;5026914;28;21632;-90
2021/10/15 00:13:07;;;;;;;;;;;;;;;9.58;100.00;101458.28;5046713;28;20308;-87
2021/10/15 00:15:32;;;;;;;;;;;;;;;9.61;100.00;101456.16;5032872;28;20358;-90
2021/10/15 00:17:58;;;;;;;;;;;;;;;9.67;100.00;101452.88;5034953;28;19916;-90
2021/10/15 00:20:23;;;;;;;;;;;;;;;9.72;100.00;101462.31;5048097;28;19931;-89
2021/10/15 00:22:49;;;;;;;;;;;;;;;9.75;100.00;101460.16;5027014;28;19916;-89
2021/10/15 00:25:14;;;;;;;;;;;;;;;9.79;100.00;101463.38;5045832;28;19978;-90
2021/10/15 00:27:40;;;;;;;;;;;;;;;9.80;100.00;101465.09;5032095;28;19917;-89
2021/10/15 00:30:05;;;;;;;;;;;;;;;9.83;100.00;101459.41;5034248;28;19923;-89
2021/10/15 00:32:31;;;;;;;;;;;;;;;9.86;100.00;101467.97;5046353;28;19912;-91
2021/10/15 00:34:56;;;;;;;;;;;;;;;9.89;100.00;101469.50;5054146;28;20645;-91
2021/10/15 00:37:22;;;;;;;;;;;;;;;9.90;100.00;101461.31;5034239;28;19920;-88
2021/10/15 00:39:48;;;;;;;;;;;;;;;9.91;100.00;101462.16;5036098;28;19916;-90
2021/10/15 00:42:13;;;;;;;;;;;;;;;9.93;100.00;101462.00;5032920;28;19924;-89
2021/10/15 00:44:39;;;;;;;;;;;;;;;9.95;100.00;101468.06;5046717;28;19920;-88
2021/10/15 00:47:05;;;;;;;;;;;;;;;9.99;100.00;101469.44;5033483;28;19970;-87
2021/10/15 00:49:31;;;;;;;;;;;;;;;10.00;100.00;101461.25;5035329;28;19917;-89
2021/10/15 00:51:56;;;;;;;;;;;;;;;10.03;100.00;101469.00;5037258;28;20288;-87
2021/10/15 00:54:22;;;;;;;;;;;;;;;10.05;100.00;101466.97;5047311;28;19945;-88
2021/10/15 00:56:47;;;;;;;;;;;;;;;10.07;100.00;101464.97;5036449;28;19966;-88
2021/10/15 00:59:13;;;;;;;;;;;;;;;10.10;100.00;101461.13;5057614;28;19920;-89
2021/10/15 01:01:38;;;;;;;;;;;;;;;10.13;100.00;101455.44;5035705;28;19920;-89
2021/10/15 01:04:04;;;;;;;;;;;;;;;10.17;100.00;101469.44;5036426;28;19971;-89
2021/10/15 01:06:30;;;;;;;;;;;;;;;10.18;100.00;101461.19;5033802;28;20358;-88
2021/10/15 01:08:56;;;;;;;;;;;;;;;10.21;100.00;101468.09;5041288;28;19921;-90
2021/10/15 01:11:22;;;;;;;;;;;;;;;10.23;100.00;101466.94;5043409;28;19921;-89
2021/10/15 01:13:47;;;;;;;;;;;;;;;10.25;100.00;101464.97;5052318;28;19912;-89
2021/10/15 01:16:13;;;;;;;;;;;;;;;10.26;100.00;101457.72;5036419;28;19924;-89
2021/10/15 01:18:39;;;;;;;;;;;;;;;10.27;100.00;101457.63;5056538;28;19916;-88
2021/10/15 01:21:08;;;;;;;;;;;;;;;10.29;100.00;101460.13;5037972;28;20371;-89
2021/10/15 01:23:38;;;;;;;;;;;;;;;10.29;100.00;101457.44;5067513;28;19956;-88
2021/10/15 01:26:04;;;;;;;;;;;;;;;10.31;100.00;101463.50;5029206;28;19916;-89
2021/10/15 01:28:32;;;;;;;;;;;;;;;10.32;100.00;101457.16;5039463;28;19923;-89
2021/10/15 01:30:57;;;;;;;;;;;;;;;10.33;100.00;101462.34;5036479;28;19912;-89
2021/10/15 01:33:23;;;;;;;;;;;;;;;10.36;100.00;101463.88;5032747;28;20293;-88
2021/10/15 01:35:49;;;;;;;;;;;;;;;10.38;100.00;101466.44;5035889;28;19927;-88
2021/10/15 01:38:15;;;;;;;;;;;;;;;10.39;100.00;101465.44;5036695;28;20015;-89
2021/10/15 01:40:41;;;;;;;;;;;;;;;10.43;100.00;101464.97;5036950;28;19955;-88
2021/10/15 01:43:06;;;;;;;;;;;;;;;10.45;100.00;101471.03;5058559;28;20010;-89
2021/10/15 01:45:32;;;;;;;;;;;;;;;10.47;100.00;101471.69;5037414;28;19927;-89
2021/10/15 01:47:58;;;;;;;;;;;;;;;10.49;100.00;101468.84;5038558;28;19916;-88
2021/10/15 01:50:24;;;;;;;;;;;;;;;10.50;100.00;101467.84;5037120;28;20368;-89
2021/10/15 01:52:50;;;;;;;;;;;;;;;10.49;100.00;101474.25;5034232;28;19923;-89
2021/10/15 01:55:16;;;;;;;;;;;;;;;10.49;100.00;101483.13;5041539;28;19932;-89
2021/10/15 01:57:41;;;;;;;;;;;;;;;10.50;100.00;101481.28;5055935;28;19971;-88
2021/10/15 02:00:08;;;;;;;;;;;;;;;10.51;100.00;101474.94;5037273;28;19920;-89
2021/10/15 02:02:33;;;;;;;;;;;;;;;10.52;100.00;101472.06;5032316;28;19920;-89
2021/10/15 02:04:59;;;;;;;;;;;;;;;10.54;100.00;101467.38;5053817;28;20300;-88
2021/10/15 02:07:24;;;;;;;;;;;;;;;10.56;100.00;101475.31;5031058;28;19921;-89
2021/10/15 02:09:50;;;;;;;;;;;;;;;10.58;100.00;101478.66;5034571;28;19920;-89
2021/10/15 02:12:16;;;;;;;;;;;;;;;10.59;100.00;101482.22;5036686;28;19923;-89
2021/10/15 02:14:41;;;;;;;;;;;;;;;10.62;100.00;101481.88;5028081;28;19978;-89
2021/10/15 02:17:07;;;;;;;;;;;;;;;10.62;100.00;101474.66;5053717;28;19920;-89
2021/10/15 02:19:32;;;;;;;;;;;;;;;10.63;100.00;101467.44;5032382;28;20309;-88
2021/10/15 02:21:58;;;;;;;;;;;;;;;10.64;100.00;101474.47;5035609;28;19916;-88
2021/10/15 02:24:23;;;;;;;;;;;;;;;10.64;100.00;101469.09;5051244;28;19966;-89
2021/10/15 02:26:49;;;;;;;;;;;;;;;10.66;100.00;101467.09;5033684;28;19923;-90
2021/10/15 02:29:15;;;;;;;;;;;;;;;10.66;100.00;101469.78;5030283;28;19917;-88
2021/10/15 02:31:40;;;;;;;;;;;;;;;10.67;100.00;101466.97;5050973;28;20308;-88
2021/10/15 02:34:06;;;;;;;;;;;;;;;10.67;100.00;101466.13;5045910;28;20327;-88
2021/10/15 02:36:31;;;;;;;;;;;;;;;10.68;100.00;101462.41;5034202;28;20284;-89
2021/10/15 02:38:57;;;;;;;;;;;;;;;10.70;100.00;101468.50;5032206;28;20264;-89
2021/10/15 02:41:23;;;;;;;;;;;;;;;10.71;100.00;101464.78;5049185;28;19924;-89
2021/10/15 02:43:48;;;;;;;;;;;;;;;10.72;100.00;101466.50;5049581;28;19916;-89
2021/10/15 02:46:14;;;;;;;;;;;;;;;10.72;100.00;101456.56;5033209;28;20374;-89
2021/10/15 02:48:40;;;;;;;;;;;;;;;10.74;100.00;101454.56;5035784;28;19943;-90
2021/10/15 02:51:11;;;;;;;;;;;;;;;10.75;100.00;101458.09;5028597;28;19924;-89
2021/10/15 02:53:38;;;;;;;;;;;;;;;10.76;100.00;101463.28;5027933;28;19959;-89
2021/10/15 02:56:03;;;;;;;;;;;;;;;10.76;100.00;101459.78;5036207;28;19920;-89
2021/10/15 02:58:29;;;;;;;;;;;;;;;10.76;100.00;101468.69;5034575;28;19920;-89
2021/10/15 03:03:48;;;;;;;;;;;;;;;10.75;100.00;101466.16;5046016;28;19916;-89
2021/10/15 03:06:14;;;;;;;;;;;;;;;10.75;100.00;101466.16;5036216;28;20417;-89
2021/10/15 03:08:40;;;;;;;;;;;;;;;10.75;100.00;101472.38;5034105;28;20353;-89
2021/10/15 03:11:05;;;;;;;;;;;;;;;10.75;100.00;101471.53;5042941;28;19916;-89
2021/10/15 03:13:31;;;;;;;;;;;;;;;10.73;100.00;101471.69;5051908;28;19981;-88
2021/10/15 03:15:56;;;;;;;;;;;;;;;10.71;100.00;101460.25;5028479;28;19923;-89
2021/10/15 03:18:22;;;;;;;;;;;;;;;10.73;100.00;101473.53;5047784;28;20266;-89
2021/10/15 03:20:48;;;;;;;;;;;;;;;10.72;100.00;101463.81;5033222;28;20324;-89
2021/10/15 03:23:13;;;;;;;;;;;;;;;10.72;100.00;101461.94;5027348;28;19963;-88
2021/10/15 03:25:39;;;;;;;;;;;;;;;10.71;100.00;101467.47;5032655;28;19923;-89
2021/10/15 03:28:05;;;;;;;;;;;;;;;10.69;100.00;101470.34;5050907;28;19922;-90
2021/10/15 03:30:30;;;;;;;;;;;;;;;10.67;100.00;101471.50;5029820;28;19967;-88
2021/10/15 03:32:56;;;;;;;;;;;;;;;10.66;100.00;101469.78;5024656;28;20003;-88
2021/10/15 03:35:22;;;;;;;;;;;;;;;10.65;100.00;101471.66;5047238;28;20380;-88
2021/10/15 03:37:47;;;;;;;;;;;;;;;10.62;100.00;101480.03;5032027;28;20557;-88
2021/10/15 03:40:13;;;;;;;;;;;;;;;10.58;100.00;101470.59;5033285;28;20007;-90
2021/10/15 03:42:38;;;;;;;;;;;;;;;10.57;100.00;101475.13;5029188;28;20305;-88
2021/10/15 03:45:04;;;;;;;;;;;;;;;10.55;100.00;101477.13;5048197;28;20429;-89
2021/10/15 03:47:30;;;;;;;;;;;;;;;10.55;100.00;101471.75;5038615;28;19917;-88
2021/10/15 03:49:57;;;;;;;;;;;;;;;10.55;100.00;101468.22;5034241;28;20273;-88
2021/10/15 03:52:22;;;;;;;;;;;;;;;10.56;100.00;101461.84;5024734;28;19928;-89
2021/10/15 03:54:48;;;;;;;;;;;;;;;10.56;100.00;101464.53;5029564;28;19916;-88
2021/10/15 03:57:14;;;;;;;;;;;;;;;10.55;100.00;101466.38;5026663;28;20141;-88
2021/10/15 03:59:39;;;;;;;;;;;;;;;10.54;100.00;101464.69;5035074;28;19956;-89
2021/10/15 04:02:05;;;;;;;;;;;;;;;10.53;100.00;101468.41;5035723;28;20025;-88
2021/10/15 04:04:30;;;;;;;;;;;;;;;10.54;100.00;101470.06;5046867;28;19913;-89
2021/10/15 04:06:56;;;;;;;;;;;;;;;10.54;100.00;101469.22;5034318;28;19920;-90
2021/10/15 04:09:22;;;;;;;;;;;;;;;10.55;100.00;101470.91;5030974;28;19959;-90
2021/10/15 04:11:47;;;;;;;;;;;;;;;10.55;100.00;101476.28;5048734;28;19916;-89
2021/10/15 04:14:13;;;;;;;;;;;;;;;10.54;100.00;101472.75;5049419;28;20230;-89
2021/10/15 04:16:38;;;;;;;;;;;;;;;10.54;100.00;101480.81;5059745;28;20408;-88
2021/10/15 04:19:04;;;;;;;;;;;;;;;10.54;100.00;101470.06;5047794;28;19916;-90
2021/10/15 04:21:30;;;;;;;;;;;;;;;10.52;100.00;101472.06;5046812;28;20431;-89
2021/10/15 04:23:57;;;;;;;;;;;;;;;10.53;100.00;101471.09;5068633;28;19970;-88
2021/10/15 04:26:22;;;;;;;;;;;;;;;10.52;100.00;101472.06;5031928;28;19916;-88
2021/10/15 04:28:48;;;;;;;;;;;;;;;10.50;100.00;101471.38;5027325;28;20042;-88
2021/10/15 04:31:15;;;;;;;;;;;;;;;10.51;100.00;101481.16;5042932;28;20367;-89
2021/10/15 04:33:42;;;;;;;;;;;;;;;10.49;100.00;101472.38;5034176;28;20751;-89
2021/10/15 04:36:08;;;;;;;;;;;;;;;10.49;100.00;101476.94;5027776;28;20372;-88
2021/10/15 04:38:34;;;;;;;;;;;;;;;10.47;100.00;101474.38;5029917;28;19912;-88
2021/10/15 04:41:00;;;;;;;;;;;;;;;10.47;100.00;101484.31;5051628;28;19923;-88
2021/10/15 04:43:28;;;;;;;;;;;;;;;10.47;100.00;101479.75;5032776;28;19912;-89
2021/10/15 04:45:53;;;;;;;;;;;;;;;10.47;100.00;101477.06;5036509;28;19924;-88
2021/10/15 04:48:19;;;;;;;;;;;;;;;10.49;100.00;101479.63;5034639;28;19916;-88
2021/10/15 04:50:44;;;;;;;;;;;;;;;10.49;100.00;101482.31;5035221;28;20373;-88
2021/10/15 04:53:12;;;;;;;;;;;;;;;10.50;100.00;101481.28;5034090;28;19920;-88
2021/10/15 04:55:38;;;;;;;;;;;;;;;10.49;100.00;101487.69;5030747;28;19916;-89
2021/10/15 04:58:03;;;;;;;;;;;;;;;10.48;100.00;101486.84;5035160;28;19969;-89
2021/10/15 05:00:30;;;;;;;;;;;;;;;10.48;100.00;101489.53;5026100;28;19916;-89
2021/10/15 05:02:56;;;;;;;;;;;;;;;10.50;100.00;101492.88;5033168;28;19924;-90
2021/10/15 05:05:27;;;;;;;;;;;;;;;10.51;100.00;101491.91;5031107;28;19912;-88
2021/10/15 05:07:58;;;;;;;;;;;;;;;10.53;100.00;101491.72;5034836;28;20296;-88
2021/10/15 05:10:25;;;;;;;;;;;;;;;10.54;100.00;101488.88;5043440;28;20372;-89
2021/10/15 05:12:51;;;;;;;;;;;;;;;10.56;100.00;101494.13;5026001;28;19928;-89
2021/10/15 05:15:16;;;;;;;;;;;;;;;10.56;100.00;101494.13;5035184;28;19961;-88
2021/10/15 05:17:42;;;;;;;;;;;;;;;10.56;100.00;101488.75;5034292;28;19916;-89
2021/10/15 05:20:09;;;;;;;;;;;;;;;10.56;100.00;101494.13;5035678;28;19916;-88
2021/10/15 05:22:34;;;;;;;;;;;;;;;10.56;100.00;101494.13;5037066;28;19912;-91
2021/10/15 05:25:00;;;;;;;;;;;;;;;10.54;100.00;101491.59;5052697;28;20270;-89
2021/10/15 05:27:26;;;;;;;;;;;;;;;10.55;100.00;101500.47;5053274;28;20007;-89
2021/10/15 05:29:52;;;;;;;;;;;;;;;10.55;100.00;101492.41;5037242;28;19917;-90
2021/10/15 05:32:18;;;;;;;;;;;;;;;10.54;100.00;101488.88;5053695;28;20803;-89
2021/10/15 05:34:44;;;;;;;;;;;;;;;10.54;100.00;101490.75;5035987;28;19916;-89
2021/10/15 05:37:10;;;;;;;;;;;;;;;10.53;100.00;101494.41;5033824;28;20328;-89
2021/10/15 05:39:36;;;;;;;;;;;;;;;10.53;100.00;101489.03;5034306;28;19921;-88
2021/10/15 05:42:02;;;;;;;;;;;;;;;10.53;100.00;101492.59;5037949;28;20296;-88
2021/10/15 05:44:27;;;;;;;;;;;;;;;10.53;100.00;101495.28;5055424;28;20361;-88
2021/10/15 05:46:53;;;;;;;;;;;;;;;10.52;100.00;101501.66;5025327;28;19948;-89
2021/10/15 05:49:20;;;;;;;;;;;;;;;10.53;100.00;101500.66;5039246;28;19921;-89
2021/10/15 05:51:48;;;;;;;;;;;;;;;10.52;100.00;101509.72;5035789;28;19913;-89
2021/10/15 05:54:24;;;;;;;;;;;;;;;10.48;100.00;101507.50;5032189;28;19934;-88
2021/10/15 05:57:04;;;;;;;;;;;;;;;10.42;100.00;101508.13;5069972;28;19955;-88
2021/10/15 05:59:29;;;;;;;;;;;;;;;10.33;100.00;101516.13;5051176;28;19924;-88
2021/10/15 06:02:01;;;;;;;;;;;;;;;10.26;100.00;101515.00;5044566;28;19916;-88
2021/10/15 06:15:33;;;;;;;;;;;;;;;9.99;100.00;101513.28;5054018;28;19997;-88
2021/10/15 06:17:58;;;;;;;;;;;;;;;9.98;100.00;101510.75;5037092;28;19931;-89
2021/10/15 06:20:24;;;;;;;;;;;;;;;9.96;100.00;101518.94;5034716;28;19917;-89
2021/10/15 06:22:50;;;;;;;;;;;;;;;9.94;100.00;101520.94;5030340;28;20293;-90
2021/10/15 06:25:15;;;;;;;;;;;;;;;9.94;100.00;101520.09;5036223;28;20379;-89
2021/10/15 06:27:41;;;;;;;;;;;;;;;9.90;100.00;101520.41;5037037;28;20404;-88
2021/10/15 06:30:06;;;;;;;;;;;;;;;9.87;100.00;101520.72;5050279;28;19916;-89
2021/10/15 06:32:32;;;;;;;;;;;;;;;9.84;100.00;101523.72;5024219;28;19999;-88
2021/10/15 06:34:57;;;;;;;;;;;;;;;9.82;100.00;101528.41;5031639;28;20323;-89
2021/10/15 06:37:24;;;;;;;;;;;;;;;9.81;100.00;101529.38;5034362;28;20019;-88
2021/10/15 06:39:53;;;;;;;;;;;;;;;9.79;100.00;101527.84;5044698;28;19916;-89
2021/10/15 06:42:18;;;;;;;;;;;;;;;9.76;100.00;101528.97;5061292;28;20009;-89
2021/10/15 06:44:44;;;;;;;;;;;;;;;9.75;100.00;101526.47;5029356;28;20935;-90
2021/10/15 06:47:10;;;;;;;;;;;;;;;9.74;100.00;101541.75;5035092;28;19942;-89
2021/10/15 06:49:35;;;;;;;;;;;;;;;9.73;100.00;101533.81;5051229;28;19916;-88
2021/10/15 06:52:01;;;;;;;;;;;;;;;9.72;100.00;101538.34;5031346;28;19916;-88
2021/10/15 06:54:26;;;;;;;;;;;;;;;9.69;100.00;101541.34;5051362;28;19962;-89
2021/10/15 06:56:52;;;;;;;;;;;;;;;9.66;100.00;101539.81;5050563;28;20028;-89
2021/10/15 06:59:17;;;;;;;;;;;;;;;9.65;100.00;101535.41;5044107;28;20011;-88
2021/10/15 07:01:45;;;;;;;;;;;;;;;9.64;100.00;101541.78;5035144;28;20389;-88
2021/10/15 07:04:11;;;;;;;;;;;;;;;9.63;100.00;101542.78;5030668;28;19970;-89
2021/10/15 07:06:36;;;;;;;;;;;;;;;9.61;100.00;101552.84;5033524;28;19916;-88
2021/10/15 07:09:03;;;;;;;;;;;;;;;9.60;100.00;101558.34;5028238;28;19963;-88
2021/10/15 07:11:30;;;;;;;;;;;;;;;9.59;100.00;101559.34;5028568;28;19916;-89
2021/10/15 07:13:56;;;;;;;;;;;;;;;9.59;100.00;101564.72;5027591;28;20368;-89
2021/10/15 07:16:22;;;;;;;;;;;;;;;9.59;100.00;101570.94;5032956;28;19927;-89
2021/10/15 07:18:48;;;;;;;;;;;;;;;9.60;100.00;101577.97;5049329;28;19917;-88
2021/10/15 07:21:13;;;;;;;;;;;;;;;9.60;100.00;101567.22;5027414;28;19928;-89
2021/10/15 07:23:39;;;;;;;;;;;;;;;9.59;100.00;101576.28;5029372;28;19920;-89
2021/10/15 07:26:05;;;;;;;;;;;;;;;9.59;100.00;101575.47;5051810;28;19917;-89
2021/10/15 07:28:31;;;;;;;;;;;;;;;9.60;100.00;101580.66;5040878;28;19920;-89
2021/10/15 07:30:58;;;;;;;;;;;;;;;9.59;100.00;101578.16;5030690;28;20038;-89
2021/10/15 07:33:23;;;;;;;;;;;;;;;9.60;100.00;101587.88;5032325;28;19962;-88
2021/10/15 07:35:49;;;;;;;;;;;;;;;9.62;100.00;101592.09;5029458;28;19944;-88
2021/10/15 07:38:15;;;;;;;;;;;;;;;9.69;100.00;101595.06;5030724;28;20159;-89
2021/10/15 07:40:40;;;;;;;;;;;;;;;9.75;100.00;101598.97;5031462;28;19916;-89
2021/10/15 07:43:06;;;;;;;;;;;;;;;9.78;100.00;101588.78;5033356;28;19916;-89
2021/10/15 07:45:32;;;;;;;;;;;;;;;9.85;100.00;101599.78;5031084;28;19961;-89
2021/10/15 07:47:57;;;;;;;;;;;;;;;9.90;100.00;101605.53;5037030;28;20284;-89
2021/10/15 07:50:23;;;;;;;;;;;;;;;9.90;100.00;101608.22;5033836;28;20300;-88
2021/10/15 07:52:49;;;;;;;;;;;;;;;9.90;100.00;101610.91;5040113;28;19912;-88
2021/10/15 07:55:14;;;;;;;;;;;;;;;9.87;100.00;101609.38;5028244;28;20254;-90
2021/10/15 07:57:40;;;;;;;;;;;;;;;9.89;100.00;101611.88;5032128;28;19916;-89
2021/10/15 08:00:06;;;;;;;;;;;;;;;9.88;100.00;101613.72;5027550;28;20525;-89
2021/10/15 08:02:33;;;;;;;;;;;;;;;9.90;100.00;101616.28;5045137;28;19924;-89
2021/10/15 08:04:58;;;;;;;;;;;;;;;9.91;100.00;101618.81;5035715;28;19917;-89
2021/10/15 08:07:24;;;;;;;;;;;;;;;9.88;100.00;101618.28;5031453;28;20129;-89
2021/10/15 08:09:49;;;;;;;;;;;;;;;9.84;100.00;101624.91;5060906;28;19920;-89
2021/10/15 08:12:15;;;;;;;;;;;;;;;9.81;100.00;101623.38;5032562;28;20254;-89
2021/10/15 08:14:40;;;;;;;;;;;;;;;9.79;100.00;101627.22;5032305;28;19924;-89
2021/10/15 08:17:06;;;;;;;;;;;;;;;9.79;100.00;101619.16;5033241;28;20377;-89
2021/10/15 08:19:32;;;;;;;;;;;;;;;9.79;100.00;101619.16;5034801;28;19917;-90
2021/10/15 08:21:57;;;;;;;;;;;;;;;9.79;100.00;101614.66;5029441;28;19924;-90
2021/10/15 08:24:24;;;;;;;;;;;;;;;9.80;100.00;101623.53;5052208;28;19931;-90
2021/10/15 08:26:50;;;;;;;;;;;;;;;9.81;100.00;101633.28;5029641;28;19969;-89
2021/10/15 08:29:18;;;;;;;;;;;;;;;9.82;100.00;101629.63;5047143;28;19924;-89
2021/10/15 08:31:43;;;;;;;;;;;;;;;9.83;100.00;101626.78;5034349;28;20370;-90
2021/10/15 08:34:10;;;;;;;;;;;;;;;9.85;100.00;101640.06;5032328;28;19916;-90
2021/10/15 08:36:38;;;;;;;;;;;;;;;9.87;100.00;101636.22;5035105;28;19917;-89
2021/10/15 08:39:04;;;;;;;;;;;;;;;9.93;100.00;101637.47;5049389;28;19920;-90
2021/10/15 08:41:31;;;;;;;;;;;;;;;9.97;100.00;101644.22;5050211;28;19920;-90
2021/10/15 08:43:59;;;;;;;;;;;;;;;10.04;100.00;101634.56;5036063;28;19916;-90
2021/10/15 08:46:25;;;;;;;;;;;;;;;10.05;100.00;101632.72;5050269;28;19981;-89
2021/10/15 08:48:51;;;;;;;;;;;;;;;10.04;100.00;101637.25;5034364;28;20261;-89
2021/10/15 08:51:16;;;;;;;;;;;;;;;10.01;100.00;101634.88;5034117;28;19924;-90
2021/10/15 08:53:55;;;;;;;;;;;;;;;10.02;100.00;101631.19;5037251;28;19919;-89
2021/10/15 08:56:24;;;;;;;;;;;;;;;10.36;100.00;101646.69;5035490;28;19920;-89
2021/10/15 08:58:51;;;;;;;;;;;;;;;10.65;100.00;101651.00;5038936;28;20315;-90
2021/10/15 09:01:20;;;;;;;;;;;;;;;10.92;100.00;101660.81;5055994;28;19917;-90
2021/10/15 09:03:46;;;;;;;;;;;;;;;11.03;99.07;101663.25;5037019;28;20372;-90
2021/10/15 09:06:12;;;;;;;;;;;;;;;11.06;98.82;101667.47;5034904;28;19921;-89
2021/10/15 09:08:51;;;;;;;;;;;;;;;11.06;98.01;101656.72;5036389;28;20410;-90
2021/10/15 09:11:26;;;;;;;;;;;;;;;11.09;97.96;101661.81;5034646;28;19913;-88
2021/10/15 09:14:11;;;;;;;;;;;;;;;11.15;96.99;101662.00;5051212;28;20357;-90
2021/10/15 09:16:58;;;;;;;;;;;;;;;11.29;96.98;101665.97;5067355;28;19930;-90
2021/10/15 09:19:27;;;;;;;;;;;;;;;11.43;96.76;101657.31;5053599;28;19916;-90
2021/10/15 09:22:12;;;;;;;;;;;;;;;11.45;95.65;101667.91;5055099;28;19916;-89
2021/10/15 09:24:43;;;;;;;;;;;;;;;11.37;95.60;101663.31;5086134;28;19919;-89
2021/10/15 09:27:11;;;;;;;;;;;;;;;11.36;95.58;101669.72;5055649;28;19917;-89
2021/10/15 09:29:44;;;;;;;14.00;3.05;;;;;;;11.39;95.32;101671.25;5065239;28;19952;-88
2021/10/15 09:32:10;;;;;;;16.00;3.33;;;;;;;11.35;94.59;101653.69;5036843;28;20029;-88
2021/10/15 09:34:35;;;;;;;8.43;2.80;;;;;;;11.42;94.47;101663.69;5034597;28;20083;-88
2021/10/15 09:37:01;;;;;;;13.70;2.65;;;;;;;11.41;94.13;101653.09;5045801;28;20098;-90
2021/10/15 09:39:30;;;;;;;5.70;2.47;;;;;;;11.46;93.77;101648.06;5064824;28;20462;-90
2021/10/15 09:41:59;;;;;;;5.03;1.90;;;;;;;11.55;93.20;101668.66;5053505;28;20036;-89
2021/10/15 09:44:36;;;;;;;11.10;2.42;;;;;;;11.48;93.71;101651.44;5016372;28;20695;-89
2021/10/15 09:47:15;;;;;;;10.13;3.15;;;;;;;11.54;93.07;101648.13;5054274;28;20024;-88
2021/10/15 09:50:00;;;;;;;11.10;2.92;;;;;;;11.68;93.09;101656.59;5068716;28;20043;-88
2021/10/15 09:52:37;;;;;;;14.13;4.03;;;;;;;11.72;92.02;101653.41;5067148;28;20044;-90
2021/10/15 09:55:28;;;;;;;10.35;2.72;;;;;;;11.75;91.36;101666.56;5069373;28;20036;-90
2021/10/15 09:57:56;;;;;;;10.75;2.75;;;;;;;11.64;91.80;101642.59;5054906;28;20045;-89
2021/10/15 10:00:27;;;;;;;12.43;3.28;;;;;;;11.71;92.07;101649.03;5054383;28;20048;-89
2021/10/15 10:02:59;;;;;;;12.32;4.70;;;;;;;11.85;92.46;101651.13;5052038;28;20040;-89
2021/10/15 10:05:25;;;;;;;8.15;3.10;;;;;;;11.95;92.31;101661.78;5067537;28;20060;-90
2021/10/15 10:07:55;;;;;;;6.88;3.08;;;;;;;12.06;91.55;101666.88;5051271;28;20064;-89
2021/10/15 10:10:28;;;;;;;9.25;3.03;;;;;;;11.98;91.62;101663.31;5051238;28;20462;-91
2021/10/15 10:12:57;;;;;;;11.57;3.15;;;;;;;12.05;91.69;101664.34;5034869;28;20051;-89
2021/10/15 10:15:29;;;;;;;7.68;2.40;;;;;;;12.00;91.34;101666.69;5054903;28;20059;-88
2021/10/15 10:21:03;;;;;;;6.25;3.10;;;;;;;12.40;90.85;101671.34;5054654;28;20115;-89
2021/10/15 10:23:36;;;;;;;11.95;3.35;;;;;;;12.56;89.99;101667.00;5069101;28;20091;-88
2021/10/15 10:26:13;;;;;;;10.77;2.20;;;;;;;12.76;87.13;101669.22;5053765;28;20051;-88
2021/10/15 10:28:40;;;;;;;10.55;2.60;;;;;;;12.98;87.70;101680.34;5061376;28;20033;-88
2021/10/15 10:31:28;;;;;;;13.35;3.10;;;;;;;13.61;85.13;101674.22;5052346;28;20033;-89
2021/10/15 10:33:59;;;;;;;5.75;2.33;;;;;;;14.08;83.15;101665.25;5065633;28;20052;-90
2021/10/15 10:36:48;;;;;;;9.93;2.30;;;;;;;14.36;82.93;101680.97;5064016;28;20025;-89
2021/10/15 10:39:20;;;;;;;8.35;1.80;;;;;;;14.10;82.09;101675.03;5053762;28;20040;-89
2021/10/15 10:42:23;;;;;;;9.07;2.15;;;;;;;14.12;81.24;101681.09;5053783;28;20131;-89
2021/10/15 10:45:01;;;;;;;7.75;2.05;;;;;;;14.00;81.38;101672.56;5053222;28;20064;-90
2021/10/15 10:47:28;;;;;;;8.18;2.00;;;;;;;13.70;81.30;101655.25;5060572;28;20032;-90
2021/10/15 10:50:05;;;;;;;10.57;2.38;;;;;;;13.97;81.42;101684.56;5042979;28;20060;-88
2021/10/15 10:52:31;;;;;;;5.57;2.20;;;;;;;14.20;80.35;101662.97;5069877;28;20461;-89
2021/10/15 10:54:58;;;;;;;9.05;1.95;;;;;;;14.19;79.67;101682.09;5048327;28;20082;-89
2021/10/15 10:57:32;;;;;;;11.50;2.30;;;;;;;14.00;79.61;101684.22;5052423;28;20039;-89
2021/10/15 11:00:22;;;;;;;7.78;2.60;;;;;;;13.75;80.53;101690.72;5031669;28;20040;-88
2021/10/15 11:02:53;;;;;;;10.98;2.08;;;;;;;13.46;80.54;101667.00;5036294;28;20129;-90
2021/10/15 11:05:52;;;;;;;9.25;2.53;;;;;;;13.51;81.63;101673.56;5050261;28;20145;-89
2021/10/15 11:08:24;;;;;;;10.32;2.17;;;;;;;13.75;79.90;101675.34;5022966;28;20094;-90
2021/10/15 11:11:36;;;;;;;3.33;1.77;;;;;;;13.82;79.63;101662.81;5053620;28;20386;-89
2021/10/15 11:14:05;;;;;;;5.53;2.20;;;;;;;13.97;78.45;101660.22;5031260;28;20582;-89
2021/10/15 11:16:31;;;;;;;11.48;2.28;;;;;;;14.47;76.76;101664.34;5070314;28;20054;-89
2021/10/15 11:19:00;;;;;;;5.13;2.03;;;;;;;14.95;73.59;101665.03;5035961;28;20066;-89
2021/10/15 11:21:25;;;;;;;8.02;2.55;;;;;;;15.28;72.83;101661.16;5046267;28;20036;-89
2021/10/15 11:23:53;;;;;;;11.05;2.75;;;;;;;15.35;71.95;101652.09;5051636;28;20393;-90
2021/10/15 11:26:31;;;;;;;5.30;2.28;;;;;;;15.81;69.80;101675.50;5037379;28;20101;-89
2021/10/15 11:28:57;;;;;;;4.60;2.63;;;;;;;15.55;69.92;101659.69;5050660;28;20033;-88
2021/10/15 11:31:24;;;;;;;7.75;2.45;;;;;;;15.38;70.83;101670.69;5049384;28;20089;-89
2021/10/15 11:33:50;;;;;;;7.18;2.38;;;;;;;15.27;71.07;101664.88;5036962;28;20033;-90
2021/10/15 11:36:21;;;;;;;3.88;1.38;;;;;;;15.02;71.77;101675.13;5045569;28;20040;-89
2021/10/15 11:38:59;;;;;;;7.53;2.50;;;;;;;14.91;72.84;101677.22;5066391;28;20127;-90
2021/10/15 11:41:25;;;;;;;4.00;1.30;;;;;;;14.81;71.51;101671.22;5066376;28;20032;-89
2021/10/15 11:43:50;;;;;;;4.43;1.55;;;;;;;14.72;71.82;101656.06;5037337;28;20059;-90
2021/10/15 11:46:21;;;;;;;9.20;2.85;;;;;;;14.94;72.37;101687.69;5052220;28;20090;-89
2021/10/15 11:48:48;;;;;;;7.10;2.88;;;;;;;14.99;72.98;101661.94;5052700;28;20119;-90
2021/10/15 11:51:16;;;;;;;9.30;2.50;;;;;;;14.95;72.20;101662.31;5036184;28;20078;-89
2021/10/15 11:53:52;;;;;;;6.93;2.05;;;;;;;14.83;71.76;101682.72;5035577;28;20040;-90
2021/10/15 11:56:18;;;;;;;7.07;2.30;;;;;;;14.77;72.48;101679.91;5024984;28;20055;-89
2021/10/15 11:58:51;;;;;;;8.23;2.15;;;;;;;14.89;72.76;101670.31;5054077;28;20474;-90
2021/10/15 12:01:36;;;;;;;5.65;2.00;;;;;;;14.82;71.99;101656.69;5051936;28;20397;-90
2021/10/15 12:04:08;;;;;;;2.88;1.30;;;;;;;14.93;71.60;101674.34;5035424;28;20378;-90
2021/10/15 12:06:41;;;;;;;8.50;2.85;;;;;;;15.25;71.58;101656.13;5027032;28;20086;-90
2021/10/15 12:09:15;;;;;;;6.15;2.50;;;;;;;15.40;70.67;101675.94;5042159;28;20033;-88
2021/10/15 12:12:17;;;;;;;10.60;2.40;;;;;;;15.16;71.80;101667.03;5031657;28;20493;-90
2021/10/15 12:14:42;;;;;;;3.00;2.13;;;;;;;15.29;71.50;101660.97;4974109;28;20042;-90
2021/10/15 12:17:10;;;;;;;5.72;1.98;;;;;;;15.23;70.65;101634.63;5023230;28;20101;-91
2021/10/15 12:19:40;;;;;;;10.65;3.13;;;;;;;15.29;70.28;101643.88;5048382;28;20486;-91
2021/10/15 12:22:18;;;;;;;7.03;2.45;;;;;;;15.53;70.68;101659.88;5033600;28;20497;-88
2021/10/15 12:24:53;;;;;;;6.15;2.20;;;;;;;15.70;70.52;101644.28;5035824;28;20041;-89
2021/10/15 12:27:25;;;;;;;6.25;1.98;;;;;;;16.08;69.73;101657.69;5054642;28;20393;-88
2021/10/15 12:30:04;;;;;;;5.70;2.07;;;;;;;15.88;69.02;101634.91;5055826;28;20040;-88
2021/10/15 12:32:57;;;;;;;8.45;2.55;;;;;;;15.67;69.39;101641.09;5053287;28;20044;-88
2021/10/15 12:35:43;;;;;;;5.22;2.10;;;;;;;15.41;70.06;101633.44;5055242;28;20044;-88